Time;durP1;ratioP1;P1;durP2;ratioP2;P2;SDS_P1;SDS_P2;PMS_P1;PMS_P2;Temp;Humidity;BMP_temperature;BMP_pressure;BME280_temperature;BME280_humidity;BME280_pressure;Samples;Min_cycle;Max_cycle;Signal;HPM_P1;HPM_P2
2022/07/24 00:02:23;;;;;;;3.20;3.20;;;25.00;68.80;;;;;;5082218;27;43549;-70
2022/07/24 00:04:56;;;;;;;3.40;3.40;;;25.00;69.00;;;;;;5073353;27;43816;-70
2022/07/24 00:07:25;;;;;;;2.83;2.83;;;25.00;69.20;;;;;;5082388;27;44076;-68
2022/07/24 00:09:53;;;;;;;2.70;2.70;;;24.90;69.20;;;;;;5070114;27;43854;-70
2022/07/24 00:12:21;;;;;;;2.97;2.97;;;24.90;69.90;;;;;;5088902;27;43476;-69
2022/07/24 00:14:51;;;;;;;3.28;3.25;;;24.90;70.30;;;;;;5069733;27;45988;-69
2022/07/24 00:17:19;;;;;;;2.80;2.80;;;24.90;70.00;;;;;;5087716;27;43891;-69
2022/07/24 00:19:47;;;;;;;3.10;3.10;;;25.00;69.80;;;;;;5088278;27;44007;-69
2022/07/24 00:22:15;;;;;;;3.07;3.07;;;25.10;69.30;;;;;;5088461;27;43444;-69
2022/07/24 00:24:43;;;;;;;3.13;3.13;;;25.20;69.00;;;;;;5102364;27;45136;-69
2022/07/24 00:27:11;;;;;;;3.10;3.10;;;25.40;68.50;;;;;;5107760;27;44258;-71
2022/07/24 00:29:39;;;;;;;2.95;2.95;;;25.50;67.90;;;;;;5107896;27;44050;-69
2022/07/24 00:32:10;;;;;;;3.00;3.00;;;25.60;67.40;;;;;;5108019;27;43975;-71
2022/07/24 00:34:38;;;;;;;3.17;3.15;;;25.80;67.00;;;;;;5107453;27;43963;-69
2022/07/24 00:37:06;;;;;;;3.15;3.15;;;25.90;66.60;;;;;;5107560;27;43931;-70
2022/07/24 00:39:34;;;;;;;2.90;2.90;;;26.10;66.30;;;;;;5107578;27;43343;-69
2022/07/24 00:42:02;;;;;;;3.00;3.00;;;26.20;65.80;;;;;;5068380;27;1116661;-70
2022/07/24 00:44:30;;;;;;;2.80;2.80;;;26.20;65.50;;;;;;5108808;27;43998;-69
2022/07/24 00:46:58;;;;;;;3.03;3.03;;;26.30;65.30;;;;;;5108645;27;43782;-69
2022/07/24 00:49:28;;;;;;;3.15;3.05;;;26.30;65.30;;;;;;5108527;27;43928;-70
2022/07/24 00:51:56;;;;;;;2.85;2.85;;;26.10;65.60;;;;;;5109099;27;43937;-69
2022/07/24 00:54:24;;;;;;;2.92;2.92;;;25.90;65.90;;;;;;5108361;27;44405;-69
2022/07/24 00:56:53;;;;;;;2.78;2.78;;;25.80;66.20;;;;;;5108564;27;43482;-69
2022/07/24 00:59:21;;;;;;;2.83;2.83;;;25.60;66.90;;;;;;5108506;27;43967;-69
2022/07/24 01:01:49;;;;;;;2.78;2.78;;;25.40;67.50;;;;;;5106973;27;43607;-69
2022/07/24 01:04:18;;;;;;;2.90;2.90;;;25.30;67.90;;;;;;5088266;27;43960;-70
2022/07/24 01:06:47;;;;;;;2.80;2.80;;;25.20;68.20;;;;;;5088593;27;43980;-70
2022/07/24 01:09:15;;;;;;;2.50;2.50;;;25.10;68.50;;;;;;5088358;27;43389;-69
2022/07/24 01:11:43;;;;;;;3.00;3.00;;;25.00;68.70;;;;;;5088450;27;43929;-69
2022/07/24 01:14:14;;;;;;;2.78;2.78;;;25.00;68.90;;;;;;5088312;27;43906;-70
2022/07/24 01:16:42;;;;;;;3.00;3.00;;;25.00;69.10;;;;;;5088223;27;43960;-70
2022/07/24 01:19:10;;;;;;;3.08;3.08;;;24.90;69.20;;;;;;5101415;27;43994;-69
2022/07/24 01:21:39;;;;;;;2.55;2.55;;;24.90;69.30;;;;;;5108400;27;43400;-69
2022/07/24 01:24:07;;;;;;;2.90;2.90;;;24.90;69.70;;;;;;5107833;27;44010;-69
2022/07/24 01:26:35;;;;;;;2.58;2.58;;;24.80;69.30;;;;;;5108044;27;43920;-69
2022/07/24 01:29:03;;;;;;;3.10;3.10;;;24.80;69.50;;;;;;5107758;27;43982;-69
2022/07/24 01:31:32;;;;;;;3.20;3.20;;;24.80;70.10;;;;;;5108230;27;43868;-70
2022/07/24 01:34:00;;;;;;;3.00;3.00;;;24.80;70.20;;;;;;5107823;27;43953;-69
2022/07/24 01:36:28;;;;;;;3.00;3.00;;;25.00;70.00;;;;;;5107751;27;43889;-70
2022/07/24 01:38:58;;;;;;;2.80;2.80;;;25.10;69.40;;;;;;5098552;27;43872;-69
2022/07/24 01:41:26;;;;;;;2.90;2.90;;;25.20;68.80;;;;;;5088016;27;43912;-70
2022/07/24 01:43:54;;;;;;;2.97;2.97;;;25.40;68.20;;;;;;5087866;27;43826;-69
2022/07/24 01:46:22;;;;;;;2.80;2.80;;;25.60;67.70;;;;;;5087870;27;44022;-70
2022/07/24 01:48:50;;;;;;;2.90;2.90;;;25.70;67.20;;;;;;5088107;27;44050;-69
2022/07/24 01:51:18;;;;;;;3.00;3.00;;;25.90;66.80;;;;;;5088670;27;43979;-69
2022/07/24 01:53:46;;;;;;;2.90;2.90;;;26.00;66.30;;;;;;5087639;27;45094;-70
2022/07/24 01:56:15;;;;;;;2.90;2.90;;;26.10;65.90;;;;;;5087674;27;43448;-69
2022/07/24 01:58:43;;;;;;;2.90;2.80;;;26.20;65.50;;;;;;5087982;27;43988;-68
2022/07/24 02:01:11;;;;;;;2.80;2.78;;;26.20;65.40;;;;;;5087965;27;43414;-70
2022/07/24 02:03:39;;;;;;;2.90;2.90;;;26.00;65.70;;;;;;5087796;27;43892;-69
2022/07/24 02:06:08;;;;;;;2.78;2.78;;;25.90;66.10;;;;;;5068939;27;45333;-69
2022/07/24 02:08:36;;;;;;;3.20;3.10;;;25.70;66.30;;;;;;5088017;27;43974;-69
2022/07/24 02:11:04;;;;;;;2.92;2.92;;;25.50;66.90;;;;;;5088147;27;43857;-69
2022/07/24 02:13:33;;;;;;;2.63;2.63;;;25.40;67.60;;;;;;5087548;27;43770;-69
2022/07/24 02:16:01;;;;;;;2.88;2.88;;;25.20;67.90;;;;;;5087034;27;43826;-68
2022/07/24 02:18:29;;;;;;;2.50;2.50;;;25.10;68.20;;;;;;5087485;27;43853;-70
2022/07/24 02:20:57;;;;;;;3.10;3.00;;;25.10;68.60;;;;;;5088056;27;43967;-69
2022/07/24 02:23:25;;;;;;;2.80;2.80;;;25.00;68.80;;;;;;5068925;28;46054;-70
2022/07/24 02:25:53;;;;;;;2.60;2.60;;;25.00;69.00;;;;;;5087282;27;44001;-69
2022/07/24 02:28:21;;;;;;;2.90;2.90;;;24.90;69.10;;;;;;5087560;27;44021;-69
2022/07/24 02:30:51;;;;;;;2.97;2.97;;;24.90;69.70;;;;;;5069467;28;43941;-70
2022/07/24 02:33:18;;;;;;;2.70;2.70;;;24.90;70.00;;;;;;5087042;27;43947;-69
2022/07/24 02:35:46;;;;;;;3.27;3.27;;;24.90;69.90;;;;;;5087498;27;43401;-70
2022/07/24 02:38:15;;;;;;;2.63;2.63;;;25.00;69.60;;;;;;5068803;28;43908;-69
2022/07/24 02:40:43;;;;;;;2.90;2.90;;;25.10;69.10;;;;;;5087185;27;44047;-70
2022/07/24 02:43:11;;;;;;;3.03;3.03;;;25.20;68.70;;;;;;5086988;27;44013;-70
2022/07/24 02:45:39;;;;;;;2.83;2.83;;;25.40;68.30;;;;;;5068632;28;44898;-69
2022/07/24 02:48:09;;;;;;;3.20;3.20;;;25.50;67.70;;;;;;5087486;27;44075;-69
2022/07/24 02:50:39;;;;;;;2.72;2.72;;;25.70;67.30;;;;;;5069165;28;43969;-70
2022/07/24 02:53:07;;;;;;;3.03;3.03;;;25.80;66.80;;;;;;5086306;27;44695;-69
2022/07/24 02:55:35;;;;;;;2.78;2.78;;;25.90;66.40;;;;;;5087010;27;43895;-69
2022/07/24 02:58:03;;;;;;;2.60;2.60;;;26.10;65.90;;;;;;5087084;27;43867;-69
2022/07/24 03:00:31;;;;;;;2.63;2.63;;;26.20;65.60;;;;;;5087363;27;43865;-69
2022/07/24 03:02:59;;;;;;;2.80;2.80;;;26.20;65.30;;;;;;5087302;27;43904;-69
2022/07/24 03:05:28;;;;;;;2.95;2.95;;;26.30;65.80;;;;;;5087091;27;43997;-70
2022/07/24 03:07:57;;;;;;;2.65;2.65;;;26.20;65.20;;;;;;5087005;27;44262;-69
2022/07/24 03:10:25;;;;;;;2.88;2.88;;;26.00;65.60;;;;;;5068936;28;44015;-70
2022/07/24 03:12:52;;;;;;;3.10;3.10;;;25.80;65.80;;;;;;5086847;27;45124;-69
2022/07/24 03:15:20;;;;;;;2.50;2.50;;;25.60;66.20;;;;;;5087194;27;43946;-69
2022/07/24 03:17:49;;;;;;;2.80;2.80;;;25.50;67.10;;;;;;5086986;27;43357;-69
2022/07/24 03:20:17;;;;;;;2.65;2.65;;;25.30;67.50;;;;;;5086101;27;43415;-69
2022/07/24 03:22:47;;;;;;;2.60;2.60;;;25.20;67.90;;;;;;5086394;27;43976;-70
2022/07/24 03:25:15;;;;;;;2.70;2.70;;;25.10;68.20;;;;;;5067936;28;45141;-69
2022/07/24 03:27:46;;;;;;;2.80;2.80;;;25.00;68.50;;;;;;5086698;27;43905;-70
2022/07/24 03:30:14;;;;;;;2.97;2.95;;;25.00;68.80;;;;;;5068478;28;43878;-69
2022/07/24 03:32:42;;;;;;;2.80;2.80;;;24.90;69.00;;;;;;5086612;27;44093;-70
2022/07/24 03:35:10;;;;;;;2.97;2.97;;;24.90;69.10;;;;;;5089951;27;44303;-69
2022/07/24 03:37:39;;;;;;;2.78;2.78;;;24.80;69.20;;;;;;5089781;27;44073;-69
2022/07/24 03:40:10;;;;;;;2.93;2.83;;;24.80;69.30;;;;;;5089878;27;44040;-70
2022/07/24 03:42:38;;;;;;;3.05;3.05;;;24.80;69.30;;;;;;5089631;27;44099;-70
2022/07/24 03:45:07;;;;;;;2.97;2.97;;;24.80;69.40;;;;;;5089837;27;43980;-69
2022/07/24 03:47:35;;;;;;;3.60;3.40;;;24.80;69.50;;;;;;5071583;28;43850;-69
2022/07/24 03:50:03;;;;;;;3.27;3.07;;;24.80;70.10;;;;;;5090275;27;43996;-69
2022/07/24 03:52:31;;;;;;;3.17;3.00;;;24.80;69.90;;;;;;5088388;27;44691;-69
2022/07/24 03:54:59;;;;;;;3.20;3.20;;;25.00;69.70;;;;;;5109583;27;43877;-69
2022/07/24 03:57:28;;;;;;;3.38;3.28;;;25.10;69.20;;;;;;5109939;27;44043;-69
2022/07/24 03:59:56;;;;;;;3.22;3.17;;;25.30;68.70;;;;;;5090432;27;43376;-70
2022/07/24 04:02:24;;;;;;;3.42;3.33;;;25.40;68.00;;;;;;5096305;27;43757;-69
2022/07/24 04:04:52;;;;;;;3.05;3.03;;;25.60;67.60;;;;;;5109565;27;43351;-69
2022/07/24 04:07:20;;;;;;;2.85;2.85;;;25.70;67.10;;;;;;5096325;27;43370;-69
2022/07/24 04:09:48;;;;;;;3.03;3.03;;;25.90;66.70;;;;;;5109906;27;43753;-69
2022/07/24 04:12:16;;;;;;;2.85;2.85;;;26.00;66.20;;;;;;5109037;27;43786;-70
2022/07/24 04:14:47;;;;;;;3.25;3.15;;;26.10;65.80;;;;;;5102652;27;43655;-69
2022/07/24 04:17:15;;;;;;;3.22;3.13;;;26.20;65.50;;;;;;5089524;27;43379;-69
2022/07/24 04:19:43;;;;;;;3.13;3.03;;;26.20;65.30;;;;;;5083434;27;43643;-69
2022/07/24 04:22:11;;;;;;;2.80;2.80;;;26.10;65.60;;;;;;5060862;28;46217;-69
2022/07/24 04:24:39;;;;;;;2.92;2.92;;;25.90;65.90;;;;;;5089327;27;43926;-70
2022/07/24 04:27:07;;;;;;;2.97;2.95;;;25.70;66.30;;;;;;5082719;27;43906;-69
2022/07/24 04:29:35;;;;;;;2.92;2.92;;;25.50;67.00;;;;;;5082963;27;43989;-68
2022/07/24 04:32:05;;;;;;;2.88;2.88;;;25.40;67.40;;;;;;5082653;27;43925;-69
2022/07/24 04:34:33;;;;;;;2.90;2.90;;;25.30;67.80;;;;;;5083063;27;43955;-70
2022/07/24 04:37:01;;;;;;;3.07;3.07;;;25.20;68.20;;;;;;5089335;27;44023;-69
2022/07/24 04:39:29;;;;;;;2.85;2.80;;;25.10;68.40;;;;;;5095689;27;43860;-69
2022/07/24 04:41:58;;;;;;;2.90;2.90;;;25.00;68.60;;;;;;5108622;27;43999;-70
2022/07/24 04:44:26;;;;;;;3.60;3.40;;;25.00;68.80;;;;;;5082483;27;45117;-69
2022/07/24 04:46:54;;;;;;;3.00;2.90;;;24.90;69.00;;;;;;5108500;27;44317;-69
2022/07/24 04:49:23;;;;;;;3.30;3.20;;;24.90;69.20;;;;;;5109081;27;43896;-68
2022/07/24 04:51:51;;;;;;;2.93;2.93;;;24.90;69.20;;;;;;5108334;27;44131;-69
2022/07/24 04:54:19;;;;;;;3.00;3.00;;;24.80;69.20;;;;;;5108597;27;43898;-69
2022/07/24 04:56:47;;;;;;;3.33;3.15;;;24.80;70.00;;;;;;5108757;27;43961;-69
2022/07/24 04:59:15;;;;;;;3.25;3.15;;;24.80;69.90;;;;;;5109024;27;43961;-69
2022/07/24 05:01:43;;;;;;;3.40;3.30;;;24.80;70.00;;;;;;5089626;27;47411;-70
2022/07/24 05:04:15;;;;;;;2.90;2.90;;;24.90;69.80;;;;;;5088697;27;44045;-69
2022/07/24 05:06:46;;;;;;;2.90;2.90;;;25.00;69.50;;;;;;5088884;27;43400;-69
2022/07/24 05:09:14;;;;;;;3.10;3.00;;;25.10;69.00;;;;;;5089125;27;43961;-69
2022/07/24 05:11:42;;;;;;;3.00;3.00;;;25.30;68.40;;;;;;5088729;27;43988;-70
2022/07/24 05:14:10;;;;;;;3.10;3.00;;;25.50;68.00;;;;;;5070175;27;44889;-68
2022/07/24 05:16:38;;;;;;;2.90;2.90;;;25.60;67.60;;;;;;5088621;27;43789;-69
2022/07/24 05:19:08;;;;;;;2.75;2.75;;;25.70;67.10;;;;;;5088967;27;44001;-70
2022/07/24 05:21:36;;;;;;;2.85;2.85;;;25.90;66.60;;;;;;5088537;27;45021;-70
2022/07/24 05:24:06;;;;;;;3.22;3.13;;;26.00;66.10;;;;;;5069822;27;45124;-69
2022/07/24 05:26:34;;;;;;;3.15;3.05;;;26.10;65.70;;;;;;5088471;27;43833;-69
2022/07/24 05:29:02;;;;;;;2.95;2.95;;;26.10;65.70;;;;;;5088911;27;43978;-69
2022/07/24 05:31:31;;;;;;;2.80;2.70;;;25.90;66.00;;;;;;5069894;27;46140;-68
2022/07/24 05:34:01;;;;;;;3.05;3.05;;;25.70;66.10;;;;;;5088306;27;44079;-70
2022/07/24 05:36:29;;;;;;;3.00;3.00;;;25.60;66.70;;;;;;5088447;27;43666;-69
2022/07/24 05:38:57;;;;;;;2.90;2.90;;;25.40;67.40;;;;;;5104909;27;43967;-69
2022/07/24 05:41:27;;;;;;;2.95;2.95;;;25.30;67.80;;;;;;5106541;27;45020;-70
2022/07/24 05:43:55;;;;;;;3.13;3.03;;;25.10;68.10;;;;;;5107676;27;44019;-69
2022/07/24 05:46:23;;;;;;;3.33;3.17;;;25.10;68.50;;;;;;5107638;27;44033;-70
2022/07/24 05:48:51;;;;;;;2.95;2.95;;;25.00;68.80;;;;;;5107903;27;44169;-68
2022/07/24 05:51:19;;;;;;;3.20;3.20;;;24.90;69.60;;;;;;5107546;27;44699;-69
2022/07/24 05:53:46;;;;;;;2.90;2.90;;;24.90;69.10;;;;;;5107598;27;43415;-69
2022/07/24 05:56:14;;;;;;;3.17;3.10;;;24.80;69.20;;;;;;5107237;27;43857;-69
2022/07/24 05:58:44;;;;;;;2.90;2.90;;;24.80;69.60;;;;;;5107902;27;43996;-70
2022/07/24 06:01:18;;;;;;;3.13;3.13;;;24.80;70.10;;;;;;5107396;27;43980;-70
2022/07/24 06:03:46;;;;;;;3.30;3.30;;;24.80;69.90;;;;;;5107171;27;44105;-69
2022/07/24 06:06:14;;;;;;;2.90;2.90;;;24.90;69.70;;;;;;5107224;27;44052;-69
2022/07/24 06:08:42;;;;;;;3.10;3.10;;;25.00;69.40;;;;;;5107961;27;43789;-69
2022/07/24 06:11:10;;;;;;;2.90;2.90;;;25.10;68.80;;;;;;5107226;27;44138;-68
2022/07/24 06:13:38;;;;;;;3.08;3.00;;;25.20;68.50;;;;;;5107262;27;43958;-69
2022/07/24 06:16:08;;;;;;;3.10;3.10;;;25.40;68.10;;;;;;5107358;27;43407;-69
2022/07/24 06:18:36;;;;;;;3.00;3.00;;;25.50;67.50;;;;;;5107618;27;44076;-70
2022/07/24 06:21:04;;;;;;;2.60;2.60;;;25.60;67.20;;;;;;5106439;27;43939;-69
2022/07/24 06:23:33;;;;;;;3.33;3.28;;;25.80;66.60;;;;;;5107093;27;43450;-69
2022/07/24 06:26:01;;;;;;;2.92;2.92;;;25.90;66.20;;;;;;5107346;27;43898;-69
2022/07/24 06:28:29;;;;;;;3.00;2.90;;;26.10;65.90;;;;;;5107738;27;43875;-70
2022/07/24 06:30:57;;;;;;;2.80;2.80;;;26.10;65.40;;;;;;5107097;27;44002;-70
2022/07/24 06:33:27;;;;;;;2.88;2.88;;;26.20;65.20;;;;;;5106635;27;43994;-70
2022/07/24 06:35:55;;;;;;;2.80;2.80;;;26.10;66.20;;;;;;5107353;27;43968;-69
2022/07/24 06:38:23;;;;;;;2.80;2.80;;;25.90;65.90;;;;;;5107355;27;43950;-70
2022/07/24 06:40:52;;;;;;;2.85;2.85;;;25.70;65.90;;;;;;5106575;27;44825;-68
2022/07/24 06:43:20;;;;;;;2.70;2.70;;;25.50;66.80;;;;;;5107222;27;43950;-68
2022/07/24 06:45:48;;;;;;;2.97;2.93;;;25.40;67.40;;;;;;5106640;27;43990;-70
2022/07/24 06:48:16;;;;;;;2.80;2.80;;;25.20;67.80;;;;;;5107322;27;44074;-69
2022/07/24 06:50:46;;;;;;;3.07;2.90;;;25.10;68.20;;;;;;5105826;27;44617;-69
2022/07/24 06:53:14;;;;;;;2.90;2.88;;;25.00;68.60;;;;;;5094928;27;43941;-68
2022/07/24 06:55:42;;;;;;;2.90;2.90;;;25.00;68.90;;;;;;5087103;27;44019;-69
2022/07/24 06:58:10;;;;;;;2.70;2.70;;;24.90;69.00;;;;;;5087155;27;44071;-69
2022/07/24 07:00:38;;;;;;;3.00;3.00;;;24.80;69.10;;;;;;5068415;28;45680;-69
2022/07/24 07:03:07;;;;;;;2.90;2.80;;;24.80;69.30;;;;;;5087022;27;43388;-69
2022/07/24 07:05:35;;;;;;;2.80;2.80;;;24.80;69.40;;;;;;5087002;27;43991;-69
2022/07/24 07:08:05;;;;;;;2.60;2.60;;;24.80;69.50;;;;;;5087526;27;44031;-70
2022/07/24 07:10:33;;;;;;;2.80;2.80;;;24.70;69.50;;;;;;5090510;27;43957;-69
2022/07/24 07:13:01;;;;;;;2.80;2.80;;;24.70;69.60;;;;;;5072275;28;44409;-70
2022/07/24 07:15:29;;;;;;;3.20;3.10;;;24.70;69.60;;;;;;5090543;27;43941;-69
2022/07/24 07:17:57;;;;;;;3.00;3.00;;;24.70;70.00;;;;;;5090973;27;44039;-69
2022/07/24 07:20:25;;;;;;;3.33;3.23;;;24.70;70.30;;;;;;5090232;27;43902;-69
2022/07/24 07:22:53;;;;;;;3.07;3.07;;;24.80;70.30;;;;;;5090182;27;43940;-69
2022/07/24 07:25:22;;;;;;;2.80;2.80;;;24.90;69.90;;;;;;5090420;27;43905;-71
2022/07/24 07:27:50;;;;;;;2.97;2.97;;;25.00;69.30;;;;;;5090556;27;43952;-68
2022/07/24 07:30:18;;;;;;;2.80;2.70;;;25.10;69.00;;;;;;5102617;27;43902;-68
2022/07/24 07:32:46;;;;;;;2.77;2.77;;;25.30;68.40;;;;;;5109816;27;43865;-70
2022/07/24 07:35:16;;;;;;;2.60;2.60;;;25.50;68.00;;;;;;5110065;27;44032;-69
2022/07/24 07:37:49;;;;;;;2.80;2.70;;;25.60;67.40;;;;;;5109914;27;43991;-69
2022/07/24 07:40:17;;;;;;;2.80;2.80;;;25.70;67.70;;;;;;5082679;27;43928;-70
2022/07/24 07:42:46;;;;;;;2.90;2.90;;;25.90;66.60;;;;;;5062931;28;43802;-70
2022/07/24 07:45:14;;;;;;;2.67;2.67;;;26.00;66.20;;;;;;5069521;28;43928;-68
2022/07/24 07:47:42;;;;;;;3.10;3.10;;;26.10;65.80;;;;;;5045394;28;43891;-69
2022/07/24 07:50:10;;;;;;;2.92;2.92;;;26.00;65.70;;;;;;5047760;28;45769;-68
2022/07/24 07:52:38;;;;;;;2.90;2.90;;;25.90;66.30;;;;;;5062899;28;44047;-69
2022/07/24 07:55:07;;;;;;;2.80;2.80;;;25.70;66.60;;;;;;5063349;28;43390;-69
2022/07/24 07:57:35;;;;;;;2.80;2.70;;;25.50;67.10;;;;;;5063511;28;43369;-68
2022/07/24 08:00:24;;;;;;;2.42;2.42;;;25.30;67.60;;;;;;5069148;28;43698;-70
2022/07/24 08:02:52;;;;;;;2.93;2.87;;;25.20;68.20;;;;;;5069490;28;43977;-70
2022/07/24 08:05:20;;;;;;;2.60;2.60;;;25.10;68.50;;;;;;5069290;28;43364;-69
2022/07/24 08:07:48;;;;;;;2.70;2.70;;;25.00;68.80;;;;;;5069486;28;43669;-70
2022/07/24 08:10:16;;;;;;;2.57;2.57;;;24.90;69.00;;;;;;5069329;28;43906;-69
2022/07/24 08:12:44;;;;;;;2.80;2.80;;;24.90;69.30;;;;;;5069213;28;44021;-69
2022/07/24 08:15:12;;;;;;;2.90;2.90;;;24.80;69.30;;;;;;5069326;28;43933;-69
2022/07/24 08:17:42;;;;;;;2.80;2.80;;;24.80;69.40;;;;;;5070070;28;43953;-69
2022/07/24 08:20:10;;;;;;;2.50;2.50;;;24.80;69.50;;;;;;5068796;28;43961;-69
2022/07/24 08:22:38;;;;;;;2.70;2.70;;;24.80;69.60;;;;;;5068620;28;43924;-70
2022/07/24 08:25:07;;;;;;;2.73;2.73;;;24.70;70.10;;;;;;5069019;28;43919;-69
2022/07/24 08:27:36;;;;;;;2.77;2.77;;;24.70;70.40;;;;;;5069344;28;43882;-69
2022/07/24 08:30:06;;;;;;;2.50;2.50;;;24.80;70.20;;;;;;5068935;28;43959;-70
2022/07/24 08:32:34;;;;;;;2.60;2.60;;;24.90;70.00;;;;;;5068749;28;43385;-69
2022/07/24 08:35:04;;;;;;;2.77;2.77;;;25.00;69.60;;;;;;5068770;28;44054;-69
2022/07/24 08:37:36;;;;;;;2.80;2.80;;;25.10;69.20;;;;;;5086542;28;43838;-69
2022/07/24 08:40:05;;;;;;;2.60;2.60;;;25.20;68.60;;;;;;5088163;28;45010;-69
2022/07/24 08:42:33;;;;;;;2.43;2.43;;;25.40;68.30;;;;;;5088601;27;45489;-70
2022/07/24 08:45:01;;;;;;;2.77;2.77;;;25.50;67.90;;;;;;5108464;27;43861;-70
2022/07/24 08:47:29;;;;;;;2.40;2.40;;;25.60;67.40;;;;;;5109570;27;43998;-69
2022/07/24 08:49:57;;;;;;;2.58;2.47;;;25.70;67.10;;;;;;5090441;27;46023;-69
2022/07/24 08:52:26;;;;;;;2.65;2.63;;;25.90;66.70;;;;;;5108589;27;43302;-69
2022/07/24 08:54:54;;;;;;;2.55;2.55;;;25.90;66.20;;;;;;5108563;27;44066;-69
2022/07/24 08:57:22;;;;;;;2.70;2.70;;;26.00;65.80;;;;;;5108927;27;43974;-69
2022/07/24 08:59:50;;;;;;;2.38;2.38;;;25.90;66.10;;;;;;5108482;27;43904;-70
2022/07/24 09:02:18;;;;;;;2.75;2.75;;;25.80;66.60;;;;;;5108373;27;43932;-69
2022/07/24 09:04:47;;;;;;;2.50;2.50;;;25.60;67.00;;;;;;5089902;27;43929;-69
2022/07/24 09:07:17;;;;;;;2.50;2.50;;;25.40;67.50;;;;;;5108740;27;43298;-69
2022/07/24 09:09:59;;;;;;;2.80;2.80;;;25.20;67.90;;;;;;5108133;27;43975;-69
2022/07/24 09:12:31;;;;;;;2.60;2.60;;;25.10;68.40;;;;;;5108508;27;43369;-68
2022/07/24 09:14:59;;;;;;;2.40;2.40;;;25.00;68.70;;;;;;5108519;27;43912;-69
2022/07/24 09:17:27;;;;;;;2.40;2.40;;;25.00;69.00;;;;;;5108940;27;43999;-69
2022/07/24 09:19:56;;;;;;;2.50;2.50;;;24.90;69.20;;;;;;5108089;27;44089;-69
2022/07/24 09:22:26;;;;;;;2.57;2.57;;;24.80;69.20;;;;;;5107871;27;43951;-70
2022/07/24 09:25:10;;;;;;;2.20;2.20;;;24.80;69.40;;;;;;5108177;27;43430;-69
2022/07/24 09:27:39;;;;;;;2.53;2.50;;;24.80;69.50;;;;;;5108502;27;43324;-69
2022/07/24 09:30:08;;;;;;;2.50;2.50;;;24.80;69.50;;;;;;5107774;27;44971;-69
2022/07/24 09:32:41;;;;;;;2.67;2.67;;;24.70;69.30;;;;;;5107388;27;43970;-68
2022/07/24 09:35:10;;;;;;;2.53;2.53;;;24.70;69.40;;;;;;5107985;27;43921;-69
2022/07/24 09:37:39;;;;;;;2.70;2.70;;;24.70;69.50;;;;;;5107964;27;43410;-69
2022/07/24 09:40:10;;;;;;;2.60;2.60;;;24.70;70.10;;;;;;5107786;27;44007;-69
2022/07/24 09:42:42;;;;;;;2.50;2.50;;;24.70;70.40;;;;;;5107618;27;43925;-69
2022/07/24 09:45:11;;;;;;;2.90;2.90;;;24.70;70.30;;;;;;5107719;27;43971;-70
2022/07/24 09:47:40;;;;;;;2.80;2.80;;;24.80;69.80;;;;;;5088376;27;43924;-70
2022/07/24 09:50:15;;;;;;;2.47;2.47;;;25.00;69.60;;;;;;5080933;27;43963;-70
2022/07/24 09:52:44;;;;;;;2.50;2.50;;;25.10;69.90;;;;;;5087691;27;43971;-69
2022/07/24 09:55:25;;;;;;;2.40;2.40;;;25.20;68.70;;;;;;5087886;27;43952;-69
2022/07/24 09:57:54;;;;;;;2.60;2.50;;;25.30;68.00;;;;;;5088631;27;43931;-69
2022/07/24 10:00:25;;;;;;;3.17;2.97;;;25.50;67.00;;;;;;5088065;27;43917;-70
2022/07/24 10:02:53;;;;;;;2.90;2.70;;;25.60;66.60;;;;;;5087673;27;43932;-69
2022/07/24 10:05:21;;;;;;;8.03;2.83;;;25.70;66.60;;;;;;5087825;27;43962;-70
2022/07/24 10:07:49;;;;;;;3.17;2.75;;;25.70;66.30;;;;;;5087913;27;43976;-69
2022/07/24 10:10:18;;;;;;;2.58;2.53;;;25.70;66.40;;;;;;5087628;27;43624;-69
2022/07/24 10:12:47;;;;;;;2.80;2.60;;;25.60;66.70;;;;;;5087757;27;43780;-70
2022/07/24 10:15:16;;;;;;;3.17;2.80;;;25.50;67.10;;;;;;5087712;27;43972;-69
2022/07/24 10:18:00;;;;;;;2.87;2.77;;;25.30;67.30;;;;;;5087967;27;44027;-69
2022/07/24 10:20:39;;;;;;;3.13;3.03;;;25.20;67.70;;;;;;5087643;27;43936;-69
2022/07/24 10:23:20;;;;;;;2.70;2.60;;;25.10;68.00;;;;;;5082192;27;43998;-69
2022/07/24 10:25:55;;;;;;;2.67;2.67;;;25.00;68.60;;;;;;5068960;27;43929;-70
2022/07/24 10:28:37;;;;;;;3.07;2.87;;;24.90;68.70;;;;;;5087948;27;43900;-70
2022/07/24 10:31:06;;;;;;;2.73;2.67;;;24.80;68.60;;;;;;5087296;27;43960;-69
2022/07/24 10:33:36;;;;;;;2.53;2.53;;;24.80;68.80;;;;;;5087283;27;43974;-69
2022/07/24 10:36:09;;;;;;;2.90;2.90;;;24.80;68.80;;;;;;5087421;27;44078;-68
2022/07/24 10:38:38;;;;;;;2.80;2.80;;;24.70;68.80;;;;;;5107630;27;43768;-69
2022/07/24 10:41:09;;;;;;;2.77;2.77;;;24.70;69.60;;;;;;5061621;28;47315;-69
2022/07/24 10:43:39;;;;;;;2.80;2.80;;;24.70;69.60;;;;;;5071729;27;45616;-70
2022/07/24 10:46:14;;;;;;;4.73;2.97;;;24.70;70.00;;;;;;5090799;27;43884;-68
2022/07/24 10:48:42;;;;;;;3.17;2.97;;;24.80;69.80;;;;;;5091045;27;43415;-70
2022/07/24 10:51:18;;;;;;;3.40;3.10;;;24.80;68.50;;;;;;5090593;27;43920;-70
2022/07/24 10:53:51;;;;;;;3.90;3.60;;;25.00;68.20;;;;;;5090857;27;43893;-68
2022/07/24 10:56:22;;;;;;;3.30;3.10;;;25.10;66.60;;;;;;5090610;27;43893;-69
2022/07/24 10:59:12;;;;;;;3.43;3.33;;;25.30;66.10;;;;;;5091172;27;43980;-70
2022/07/24 11:01:42;;;;;;;3.90;3.70;;;25.50;64.60;;;;;;5084013;27;43947;-69
2022/07/24 11:04:29;;;;;;;3.43;3.27;;;25.60;63.00;;;;;;5104133;27;43993;-69
2022/07/24 11:06:59;;;;;;;3.83;3.63;;;25.70;62.20;;;;;;5110544;27;44168;-69
2022/07/24 11:09:27;;;;;;;3.92;3.72;;;25.80;61.70;;;;;;5110859;27;43833;-70
2022/07/24 11:12:06;;;;;;;4.20;4.00;;;25.90;61.80;;;;;;5110146;27;43944;-69
2022/07/24 11:14:50;;;;;;;3.88;3.78;;;25.90;61.80;;;;;;5109926;27;43505;-69
2022/07/24 11:17:38;;;;;;;4.00;3.77;;;26.00;61.70;;;;;;5090777;27;44034;-70
2022/07/24 11:20:07;;;;;;;3.80;3.58;;;26.10;61.90;;;;;;5101330;27;43944;-69
2022/07/24 11:22:40;;;;;;;3.60;3.40;;;26.10;61.50;;;;;;5090051;27;44028;-69
2022/07/24 11:25:15;;;;;;;3.72;3.58;;;26.00;62.20;;;;;;5090287;27;43874;-69
2022/07/24 11:27:51;;;;;;;3.70;3.60;;;25.90;62.70;;;;;;5090357;27;43454;-69
2022/07/24 11:30:21;;;;;;;3.93;3.80;;;25.70;64.10;;;;;;5090660;27;43957;-70
2022/07/24 11:32:49;;;;;;;4.00;3.90;;;25.50;63.60;;;;;;5090217;27;43624;-69
2022/07/24 11:35:17;;;;;;;4.10;4.00;;;25.40;63.50;;;;;;5090043;27;43296;-69
2022/07/24 11:37:46;;;;;;;4.37;4.27;;;25.30;63.80;;;;;;5090056;27;43999;-69
2022/07/24 11:40:15;;;;;;;4.00;3.90;;;25.20;63.70;;;;;;5089925;27;43957;-69
2022/07/24 11:42:43;;;;;;;4.13;4.03;;;25.10;63.90;;;;;;5109832;27;43932;-69
2022/07/24 11:45:11;;;;;;;4.40;4.30;;;25.00;64.80;;;;;;5109536;27;44012;-69
2022/07/24 11:47:41;;;;;;;4.37;4.27;;;24.90;64.30;;;;;;5109834;27;43994;-71
2022/07/24 11:50:09;;;;;;;4.17;4.07;;;24.90;63.70;;;;;;5083764;27;43340;-69
2022/07/24 11:52:38;;;;;;;3.70;3.60;;;24.90;64.10;;;;;;5089454;27;44075;-70
2022/07/24 11:55:07;;;;;;;4.37;4.13;;;25.10;64.00;;;;;;5082449;27;44026;-69
2022/07/24 11:57:44;;;;;;;4.07;3.97;;;25.20;63.20;;;;;;5084633;27;44018;-70
2022/07/24 12:00:32;;;;;;;3.83;3.73;;;25.40;62.90;;;;;;5089953;27;43904;-69
2022/07/24 12:03:03;;;;;;;4.00;3.90;;;25.60;62.90;;;;;;5089933;27;43896;-69
2022/07/24 12:05:33;;;;;;;4.10;3.90;;;25.70;62.00;;;;;;5089751;27;44078;-70
2022/07/24 12:08:01;;;;;;;3.97;3.88;;;25.80;61.30;;;;;;5071373;28;43887;-69
2022/07/24 12:10:30;;;;;;;4.07;3.97;;;25.90;61.30;;;;;;5071906;28;44238;-69
2022/07/24 12:12:58;;;;;;;4.20;4.10;;;26.00;59.90;;;;;;5089586;27;44792;-69
2022/07/24 12:15:26;;;;;;;4.07;3.97;;;26.10;60.20;;;;;;5089405;27;43292;-69
2022/07/24 12:17:59;;;;;;;4.05;3.92;;;26.10;59.70;;;;;;5089556;27;44042;-69
2022/07/24 12:20:29;;;;;;;4.13;3.92;;;26.20;59.80;;;;;;5090043;27;43326;-69
2022/07/24 12:22:57;;;;;;;4.40;4.20;;;26.10;59.20;;;;;;5089691;27;44014;-69
2022/07/24 12:25:25;;;;;;;4.40;4.20;;;26.00;60.20;;;;;;5089242;27;43409;-70
2022/07/24 12:28:03;;;;;;;4.57;4.40;;;25.90;60.80;;;;;;5089406;27;43952;-68
2022/07/24 12:30:32;;;;;;;3.63;3.58;;;25.70;61.20;;;;;;5089903;27;44063;-69
2022/07/24 12:33:01;;;;;;;3.75;3.65;;;25.50;60.90;;;;;;5089382;27;43988;-70
2022/07/24 12:35:31;;;;;;;4.17;3.97;;;25.40;61.20;;;;;;5089339;27;43955;-68
2022/07/24 12:38:02;;;;;;;4.53;4.10;;;25.30;61.40;;;;;;5089462;27;44000;-70
2022/07/24 12:40:32;;;;;;;3.85;3.75;;;25.20;61.70;;;;;;5089245;27;44228;-69
2022/07/24 12:43:05;;;;;;;4.00;3.90;;;25.10;61.70;;;;;;5069053;28;44028;-69
2022/07/24 12:45:33;;;;;;;4.10;4.00;;;25.10;61.70;;;;;;5068511;28;43344;-69
2022/07/24 12:48:12;;;;;;;3.90;3.80;;;25.00;61.50;;;;;;5068963;28;43992;-70
2022/07/24 12:50:41;;;;;;;3.92;3.83;;;25.00;61.60;;;;;;5069139;28;43896;-70
2022/07/24 12:53:25;;;;;;;3.97;3.87;;;25.00;61.60;;;;;;5069424;28;45559;-69
2022/07/24 12:56:04;;;;;;;3.60;3.50;;;24.90;61.60;;;;;;5087929;28;44019;-69
2022/07/24 12:58:51;;;;;;;4.00;3.90;;;24.90;63.40;;;;;;5088108;28;44034;-69
2022/07/24 13:01:19;;;;;;;3.90;3.70;;;24.90;62.80;;;;;;5069978;28;43939;-70